Time;durP1;ratioP1;P1;durP2;ratioP2;P2;SDS_P1;SDS_P2;PMS_P1;PMS_P2;Temp;Humidity;BMP_temperature;BMP_pressure;BME280_temperature;BME280_humidity;BME280_pressure;Samples;Min_cycle;Max_cycle;Signal;HPM_P1;HPM_P2
2022/12/01 00:02:03;;;;;;;;;54.75;40.25;;;;;;;;5079138;27;45446;-73
2022/12/01 00:04:29;;;;;;;;;53.25;42.00;;;;;;;;5078681;27;45222;-73
2022/12/01 00:06:54;;;;;;;;;52.50;43.00;;;;;;;;5078497;27;45299;-73
2022/12/01 00:12:03;;;;;;;;;64.00;46.25;;;;;;;;5078265;27;45294;-73
2022/12/01 00:14:28;;;;;;;;;44.25;36.00;;;;;;;;5086454;27;45470;-73
2022/12/01 00:16:53;;;;;;;;;48.00;41.00;;;;;;;;5078183;27;45359;-73
2022/12/01 00:19:18;;;;;;;;;52.25;40.50;;;;;;;;5094886;27;45485;-74
2022/12/01 00:21:45;;;;;;;;;52.00;39.25;;;;;;;;5091164;27;45366;-73
2022/12/01 00:24:10;;;;;;;;;57.00;41.25;;;;;;;;5085100;27;45355;-74
2022/12/01 00:26:36;;;;;;;;;60.25;42.25;;;;;;;;5082052;27;45461;-73
2022/12/01 00:29:02;;;;;;;;;56.50;41.50;;;;;;;;5082671;27;45460;-73
2022/12/01 00:31:27;;;;;;;;;55.25;42.75;;;;;;;;5080263;27;45365;-73
2022/12/01 00:33:52;;;;;;;;;55.00;43.00;;;;;;;;5085534;27;45185;-74
2022/12/01 00:36:18;;;;;;;;;45.75;42.00;;;;;;;;5080938;27;45532;-73
2022/12/01 00:38:43;;;;;;;;;56.00;44.00;;;;;;;;5084144;27;46155;-73
2022/12/01 00:41:08;;;;;;;;;49.75;40.25;;;;;;;;5081280;27;45261;-73
2022/12/01 00:43:34;;;;;;;;;52.75;39.50;;;;;;;;5085307;27;45378;-73
2022/12/01 00:45:59;;;;;;;;;58.75;44.50;;;;;;;;5084538;27;45470;-73
2022/12/01 00:48:24;;;;;;;;;63.25;42.75;;;;;;;;5083711;27;46038;-73
2022/12/01 00:50:50;;;;;;;;;58.25;42.50;;;;;;;;5081159;27;45276;-73
2022/12/01 00:53:15;;;;;;;;;60.25;48.50;;;;;;;;5089037;27;45406;-73
2022/12/01 00:55:40;;;;;;;;;57.00;44.75;;;;;;;;5082205;27;45572;-73
2022/12/01 00:58:06;;;;;;;;;59.75;45.00;;;;;;;;5084699;27;46160;-72
2022/12/01 01:00:31;;;;;;;;;63.50;45.50;;;;;;;;5080730;27;45342;-73
2022/12/01 01:02:57;;;;;;;;;55.25;43.25;;;;;;;;5084474;27;45326;-73
2022/12/01 01:05:22;;;;;;;;;56.50;45.50;;;;;;;;5080827;27;45424;-73
2022/12/01 01:07:47;;;;;;;;;59.75;45.50;;;;;;;;5081953;27;48063;-73
2022/12/01 01:10:12;;;;;;;;;59.25;43.50;;;;;;;;5080926;27;44674;-73
2022/12/01 01:12:37;;;;;;;;;52.25;42.50;;;;;;;;5084045;27;45653;-73
2022/12/01 01:15:04;;;;;;;;;54.25;42.25;;;;;;;;5080517;27;45244;-73
2022/12/01 01:17:29;;;;;;;;;57.50;43.25;;;;;;;;5086239;27;48329;-73
2022/12/01 01:19:54;;;;;;;;;60.75;45.75;;;;;;;;5080716;27;45315;-73
2022/12/01 01:22:19;;;;;;;;;55.50;44.50;;;;;;;;5085430;27;45262;-73
2022/12/01 01:24:44;;;;;;;;;59.00;45.50;;;;;;;;5080787;27;45496;-73
2022/12/01 01:27:09;;;;;;;;;56.00;40.75;;;;;;;;5081321;27;45472;-73
2022/12/01 01:29:35;;;;;;;;;53.00;40.25;;;;;;;;5087494;27;45371;-73
2022/12/01 01:32:00;;;;;;;;;55.25;40.25;;;;;;;;5081348;27;45347;-73
2022/12/01 01:34:25;;;;;;;;;59.75;46.00;;;;;;;;5094294;27;45282;-73
2022/12/01 01:36:50;;;;;;;;;53.00;42.75;;;;;;;;5082985;27;45432;-73
2022/12/01 01:39:16;;;;;;;;;60.50;42.75;;;;;;;;5080315;27;45466;-73
2022/12/01 01:41:41;;;;;;;;;55.25;39.25;;;;;;;;5081917;27;45206;-73
2022/12/01 01:44:25;;;;;;;;;47.75;40.00;;;;;;;;5081523;27;45935;-73
2022/12/01 01:46:50;;;;;;;;;60.25;44.25;;;;;;;;5082613;27;46140;-73
2022/12/01 01:49:15;;;;;;;;;46.75;35.50;;;;;;;;5079994;27;45463;-73
2022/12/01 01:51:43;;;;;;;;;39.75;36.00;;;;;;;;5082023;27;45472;-73
2022/12/01 01:54:14;;;;;;;;;59.50;42.50;;;;;;;;5087422;27;45382;-73
2022/12/01 01:56:40;;;;;;;;;50.25;42.50;;;;;;;;5081481;27;46095;-73
2022/12/01 01:59:06;;;;;;;;;62.25;48.50;;;;;;;;5091156;27;45438;-73
2022/12/01 02:01:31;;;;;;;;;56.25;42.00;;;;;;;;5094894;27;45324;-73
2022/12/01 02:03:56;;;;;;;;;58.00;43.00;;;;;;;;5080073;27;45212;-73
2022/12/01 02:06:22;;;;;;;;;46.50;37.75;;;;;;;;5083324;27;45219;-73
2022/12/01 02:08:47;;;;;;;;;61.00;43.00;;;;;;;;5082530;27;45146;-73
2022/12/01 02:11:31;;;;;;;;;55.50;41.50;;;;;;;;5080036;27;45229;-73
2022/12/01 02:14:12;;;;;;;;;45.75;39.50;;;;;;;;5083975;27;45677;-73
2022/12/01 02:16:48;;;;;;;;;48.75;40.50;;;;;;;;5094211;27;45330;-73
2022/12/01 02:19:28;;;;;;;;;54.25;41.25;;;;;;;;5082947;27;45355;-73
2022/12/01 02:22:06;;;;;;;;;53.00;38.25;;;;;;;;5082551;27;45274;-73
2022/12/01 02:24:51;;;;;;;;;50.25;38.50;;;;;;;;5083698;27;45358;-73
2022/12/01 02:27:45;;;;;;;;;43.25;32.50;;;;;;;;5081896;27;45354;-73
2022/12/01 02:30:17;;;;;;;;;54.75;42.75;;;;;;;;5073369;27;45608;-73
2022/12/01 02:32:42;;;;;;;;;55.50;42.00;;;;;;;;5090650;27;45401;-73
2022/12/01 02:35:20;;;;;;;;;48.75;32.50;;;;;;;;5092832;27;45470;-73
2022/12/01 02:38:02;;;;;;;;;58.75;44.25;;;;;;;;5082761;27;45168;-73
2022/12/01 02:40:40;;;;;;;;;53.75;40.50;;;;;;;;5082686;27;45227;-73
2022/12/01 02:43:13;;;;;;;;;56.75;42.00;;;;;;;;5089887;27;45375;-73
2022/12/01 02:45:38;;;;;;;;;41.00;38.25;;;;;;;;5091050;27;45465;-73
2022/12/01 02:48:05;;;;;;;;;51.20;39.00;;;;;;;;5081677;27;45384;-73
2022/12/01 02:50:32;;;;;;;;;48.75;35.50;;;;;;;;5079190;27;45185;-73
2022/12/01 02:52:59;;;;;;;;;48.00;39.25;;;;;;;;5080607;27;45456;-73
2022/12/01 02:55:24;;;;;;;;;51.00;40.00;;;;;;;;5090501;27;47170;-73
2022/12/01 02:57:49;;;;;;;;;51.25;38.75;;;;;;;;5082621;27;45371;-73
2022/12/01 03:00:15;;;;;;;;;57.50;40.00;;;;;;;;5079228;27;45248;-73
2022/12/01 03:02:50;;;;;;;;;45.00;39.25;;;;;;;;5082001;27;45442;-73
2022/12/01 03:05:33;;;;;;;;;49.75;39.00;;;;;;;;5092557;27;45474;-73
2022/12/01 03:08:12;;;;;;;;;33.00;28.75;;;;;;;;5082941;27;47203;-73
2022/12/01 03:10:47;;;;;;;;;56.50;41.25;;;;;;;;5081616;27;45540;-73
2022/12/01 03:13:15;;;;;;;;;51.75;41.50;;;;;;;;5086785;27;45345;-73
2022/12/01 03:15:52;;;;;;;;;52.00;42.25;;;;;;;;5078867;27;45227;-73
2022/12/01 03:18:36;;;;;;;;;51.00;39.25;;;;;;;;5080711;27;46155;-73
2022/12/01 03:21:01;;;;;;;;;40.25;33.50;;;;;;;;5079097;27;45595;-73
2022/12/01 03:23:29;;;;;;;;;54.75;43.25;;;;;;;;5081563;27;45374;-73
2022/12/01 03:25:55;;;;;;;;;57.50;43.50;;;;;;;;5078847;27;45436;-73
2022/12/01 03:28:22;;;;;;;;;53.25;42.00;;;;;;;;5081621;27;46583;-73
2022/12/01 03:30:50;;;;;;;;;60.25;43.50;;;;;;;;5077378;27;45450;-73
2022/12/01 03:33:19;;;;;;;;;50.50;39.75;;;;;;;;5082425;27;45528;-73
2022/12/01 03:35:50;;;;;;;;;52.50;40.25;;;;;;;;5083697;27;45235;-73
2022/12/01 03:38:25;;;;;;;;;54.00;39.25;;;;;;;;5089551;27;45224;-73
2022/12/01 03:40:54;;;;;;;;;47.50;39.00;;;;;;;;5078840;27;44870;-73
2022/12/01 03:43:22;;;;;;;;;57.75;41.75;;;;;;;;5081066;27;45325;-73
2022/12/01 03:45:53;;;;;;;;;50.00;39.00;;;;;;;;5078350;27;45487;-73
2022/12/01 03:48:20;;;;;;;;;53.00;39.25;;;;;;;;5080905;27;45447;-73
2022/12/01 03:50:54;;;;;;;;;57.75;43.75;;;;;;;;5078626;27;45205;-73
2022/12/01 03:53:29;;;;;;;;;45.25;29.75;;;;;;;;5083852;27;45436;-73
2022/12/01 03:56:02;;;;;;;;;48.75;37.50;;;;;;;;5081873;27;45370;-73
2022/12/01 03:58:32;;;;;;;;;49.00;40.75;;;;;;;;5083701;27;46119;-73
2022/12/01 04:00:58;;;;;;;;;53.25;40.50;;;;;;;;5081977;27;45264;-73
2022/12/01 04:03:24;;;;;;;;;56.50;43.75;;;;;;;;5082153;27;45339;-73
2022/12/01 04:05:50;;;;;;;;;62.25;44.75;;;;;;;;5082097;27;45571;-73
2022/12/01 04:08:15;;;;;;;;;54.00;39.25;;;;;;;;5090065;27;45153;-73
2022/12/01 04:10:40;;;;;;;;;56.00;41.00;;;;;;;;5082841;27;45214;-73
2022/12/01 04:13:10;;;;;;;;;53.00;40.75;;;;;;;;5088087;27;45247;-73
2022/12/01 04:15:36;;;;;;;;;54.50;43.50;;;;;;;;5083687;27;45366;-73
2022/12/01 04:18:01;;;;;;;;;59.25;41.50;;;;;;;;5085895;27;46962;-73
2022/12/01 04:20:26;;;;;;;;;52.25;42.00;;;;;;;;5081583;27;44854;-73
2022/12/01 04:22:51;;;;;;;;;58.00;44.00;;;;;;;;5084122;27;45563;-73
2022/12/01 04:25:16;;;;;;;;;58.75;41.75;;;;;;;;5081790;27;45200;-73
2022/12/01 04:27:42;;;;;;;;;53.00;40.75;;;;;;;;5083561;27;45302;-73
2022/12/01 04:30:07;;;;;;;;;53.75;40.00;;;;;;;;5081550;27;45143;-73
2022/12/01 04:32:36;;;;;;;;;54.75;42.75;;;;;;;;5088977;27;45355;-73
2022/12/01 04:35:02;;;;;;;;;62.00;43.75;;;;;;;;5099422;27;46405;-73
2022/12/01 04:37:27;;;;;;;;;53.25;43.00;;;;;;;;5096538;27;47538;-73
2022/12/01 04:39:52;;;;;;;;;52.25;39.50;;;;;;;;5094584;27;45436;-73
2022/12/01 04:42:17;;;;;;;;;55.50;43.00;;;;;;;;5091119;27;45596;-73
2022/12/01 04:44:42;;;;;;;;;59.75;41.75;;;;;;;;5080872;27;45529;-73
2022/12/01 04:47:08;;;;;;;;;49.25;38.25;;;;;;;;5089762;27;45585;-73
2022/12/01 04:49:34;;;;;;;;;43.25;36.00;;;;;;;;5088807;27;45382;-73
2022/12/01 04:51:59;;;;;;;;;61.50;44.75;;;;;;;;5083886;27;45646;-73
2022/12/01 04:54:24;;;;;;;;;50.25;39.75;;;;;;;;5081025;27;45457;-73
2022/12/01 04:56:49;;;;;;;;;52.25;40.00;;;;;;;;5084852;27;45543;-73
2022/12/01 04:59:15;;;;;;;;;53.00;42.00;;;;;;;;5080915;27;45678;-73
2022/12/01 05:01:40;;;;;;;;;50.00;41.75;;;;;;;;5081933;27;45244;-73
2022/12/01 05:04:05;;;;;;;;;58.00;43.00;;;;;;;;5080903;27;46984;-73
2022/12/01 05:06:30;;;;;;;;;53.00;39.25;;;;;;;;5095397;27;45492;-73
2022/12/01 05:08:57;;;;;;;;;47.25;37.25;;;;;;;;5083033;27;45350;-73
2022/12/01 05:11:23;;;;;;;;;61.50;47.25;;;;;;;;5080749;27;45237;-73
2022/12/01 05:13:49;;;;;;;;;56.50;47.00;;;;;;;;5086567;27;45415;-73
2022/12/01 05:16:16;;;;;;;;;59.00;43.00;;;;;;;;5081087;27;45256;-74
2022/12/01 05:18:41;;;;;;;;;59.00;39.75;;;;;;;;5091709;27;45383;-72
2022/12/01 05:21:08;;;;;;;;;59.75;42.75;;;;;;;;5082468;27;45399;-72
2022/12/01 05:23:34;;;;;;;;;37.75;37.25;;;;;;;;5088478;27;46742;-73
2022/12/01 05:25:59;;;;;;;;;48.25;40.25;;;;;;;;5080782;27;46441;-73
2022/12/01 05:28:25;;;;;;;;;53.25;39.50;;;;;;;;5087967;27;45391;-72
2022/12/01 05:30:51;;;;;;;;;51.50;42.25;;;;;;;;5094788;27;45751;-72
2022/12/01 05:33:16;;;;;;;;;48.75;39.25;;;;;;;;5089773;27;45489;-72
2022/12/01 05:35:42;;;;;;;;;56.00;44.00;;;;;;;;5085912;27;47835;-72
2022/12/01 05:38:07;;;;;;;;;51.25;38.75;;;;;;;;5082746;27;45399;-72
2022/12/01 05:40:32;;;;;;;;;62.25;44.25;;;;;;;;5094896;27;45175;-73
2022/12/01 05:42:58;;;;;;;;;59.25;41.00;;;;;;;;5082628;27;45288;-73
2022/12/01 05:45:23;;;;;;;;;53.75;41.50;;;;;;;;5080309;27;46258;-73
2022/12/01 05:47:49;;;;;;;;;52.75;32.00;;;;;;;;5082464;27;45388;-73
2022/12/01 05:50:14;;;;;;;;;58.00;41.25;;;;;;;;5084599;27;45286;-73
2022/12/01 05:52:39;;;;;;;;;58.00;40.00;;;;;;;;5082445;27;45221;-73
2022/12/01 05:55:05;;;;;;;;;55.25;43.75;;;;;;;;5085359;27;45359;-73
2022/12/01 05:57:31;;;;;;;;;52.25;42.75;;;;;;;;5084118;27;45254;-73
2022/12/01 05:59:56;;;;;;;;;47.50;38.25;;;;;;;;5081991;27;45216;-73
2022/12/01 06:02:21;;;;;;;;;44.50;36.50;;;;;;;;5092677;27;45580;-72
2022/12/01 06:04:46;;;;;;;;;44.50;34.25;;;;;;;;5089427;27;45604;-72
2022/12/01 06:07:12;;;;;;;;;48.50;39.50;;;;;;;;5084709;27;45315;-72
2022/12/01 06:09:37;;;;;;;;;56.00;39.75;;;;;;;;5085013;27;45276;-73
2022/12/01 06:12:02;;;;;;;;;44.75;40.50;;;;;;;;5079769;27;45979;-73
2022/12/01 06:14:27;;;;;;;;;61.75;43.75;;;;;;;;5081461;27;47106;-73
2022/12/01 06:16:52;;;;;;;;;63.25;48.75;;;;;;;;5077362;27;45342;-73
2022/12/01 06:19:18;;;;;;;;;56.50;43.50;;;;;;;;5084621;27;45261;-73
2022/12/01 06:21:43;;;;;;;;;51.00;42.00;;;;;;;;5081101;27;45867;-73
2022/12/01 06:24:08;;;;;;;;;50.00;43.50;;;;;;;;5084267;27;46359;-72
2022/12/01 06:26:34;;;;;;;;;55.75;41.25;;;;;;;;5079547;27;45492;-74
2022/12/01 06:28:59;;;;;;;;;57.50;41.75;;;;;;;;5087979;27;45429;-73
2022/12/01 06:31:24;;;;;;;;;48.50;37.25;;;;;;;;5079369;27;45469;-72
2022/12/01 06:33:49;;;;;;;;;56.75;44.25;;;;;;;;5091854;27;45291;-72
2022/12/01 06:36:14;;;;;;;;;60.75;44.50;;;;;;;;5084779;27;45255;-72
2022/12/01 06:38:40;;;;;;;;;48.75;38.75;;;;;;;;5084107;27;45480;-73
2022/12/01 06:41:05;;;;;;;;;55.50;41.00;;;;;;;;5097712;27;45222;-72
2022/12/01 06:43:30;;;;;;;;;65.25;45.25;;;;;;;;5083271;27;45458;-72
2022/12/01 06:45:55;;;;;;;;;57.75;41.00;;;;;;;;5078720;27;44692;-72
2022/12/01 06:48:20;;;;;;;;;48.00;39.75;;;;;;;;5080838;27;45229;-72
2022/12/01 06:50:46;;;;;;;;;48.75;38.50;;;;;;;;5078863;27;45307;-72
2022/12/01 06:53:11;;;;;;;;;53.25;37.00;;;;;;;;5079049;27;45845;-72
2022/12/01 06:55:36;;;;;;;;;53.75;44.75;;;;;;;;5078739;27;45360;-72
2022/12/01 06:58:02;;;;;;;;;42.00;34.75;;;;;;;;5082991;27;45285;-72
2022/12/01 07:00:27;;;;;;;;;57.00;41.50;;;;;;;;5078437;27;45480;-72
2022/12/01 07:02:52;;;;;;;;;39.75;33.25;;;;;;;;5078868;27;45727;-72
2022/12/01 07:05:17;;;;;;;;;56.50;40.00;;;;;;;;5077433;27;45572;-72
2022/12/01 07:07:43;;;;;;;;;50.75;40.75;;;;;;;;5083349;27;45352;-72
2022/12/01 07:10:08;;;;;;;;;57.75;41.25;;;;;;;;5078606;27;45473;-72
2022/12/01 07:12:34;;;;;;;;;48.50;40.00;;;;;;;;5086087;27;47028;-72
2022/12/01 07:15:00;;;;;;;;;59.00;40.50;;;;;;;;5086156;27;45328;-72
2022/12/01 07:17:25;;;;;;;;;49.00;41.25;;;;;;;;5090258;27;45438;-72
2022/12/01 07:19:51;;;;;;;;;52.50;43.50;;;;;;;;5083624;27;45378;-72
2022/12/01 07:22:16;;;;;;;;;56.50;46.00;;;;;;;;5078643;27;46005;-72
2022/12/01 07:24:41;;;;;;;;;51.50;40.75;;;;;;;;5078627;27;45345;-72
2022/12/01 07:27:06;;;;;;;;;41.25;35.75;;;;;;;;5084438;27;45441;-72
2022/12/01 07:29:31;;;;;;;;;52.75;40.25;;;;;;;;5086299;27;45567;-72
2022/12/01 07:31:56;;;;;;;;;55.25;42.25;;;;;;;;5081374;27;45141;-72
2022/12/01 07:34:22;;;;;;;;;54.75;41.75;;;;;;;;5084344;27;45356;-72
2022/12/01 07:36:47;;;;;;;;;51.50;40.00;;;;;;;;5079206;27;45658;-73
2022/12/01 07:39:12;;;;;;;;;50.50;40.75;;;;;;;;5079982;27;45789;-73
2022/12/01 07:41:37;;;;;;;;;57.00;44.50;;;;;;;;5077980;27;46518;-72
2022/12/01 07:44:02;;;;;;;;;61.25;44.25;;;;;;;;5077439;27;45438;-73
2022/12/01 07:46:28;;;;;;;;;47.75;34.25;;;;;;;;5084885;27;45359;-72
2022/12/01 07:48:54;;;;;;;;;59.25;43.75;;;;;;;;5077965;27;46062;-72
2022/12/01 07:51:20;;;;;;;;;51.50;40.25;;;;;;;;5077743;27;45400;-72
2022/12/01 07:53:47;;;;;;;;;60.00;45.50;;;;;;;;5078060;27;45394;-72
2022/12/01 07:56:12;;;;;;;;;55.00;44.75;;;;;;;;5077985;27;45496;-72
2022/12/01 07:58:38;;;;;;;;;56.50;40.75;;;;;;;;5077412;27;45284;-71
2022/12/01 08:01:11;;;;;;;;;55.00;40.25;;;;;;;;5084544;27;45384;-72
2022/12/01 08:03:36;;;;;;;;;54.25;43.75;;;;;;;;5082274;27;45763;-72
2022/12/01 08:06:02;;;;;;;;;51.00;40.50;;;;;;;;5076953;27;45457;-72
2022/12/01 08:08:29;;;;;;;;;56.00;39.00;;;;;;;;5086228;27;46046;-71
2022/12/01 08:10:57;;;;;;;;;47.50;36.50;;;;;;;;5078278;27;45306;-72
2022/12/01 08:13:23;;;;;;;;;52.00;39.50;;;;;;;;5082957;27;45292;-72
2022/12/01 08:15:48;;;;;;;;;57.75;42.00;;;;;;;;5076983;27;45382;-71
2022/12/01 08:18:14;;;;;;;;;43.75;38.75;;;;;;;;5085706;27;45471;-71
2022/12/01 08:20:39;;;;;;;;;42.25;35.75;;;;;;;;5076651;27;48108;-72
2022/12/01 08:23:04;;;;;;;;;42.25;37.25;;;;;;;;5084026;27;45393;-72
2022/12/01 08:25:29;;;;;;;;;37.00;31.75;;;;;;;;5078394;28;45434;-72
2022/12/01 08:27:55;;;;;;;;;32.00;31.00;;;;;;;;5084073;27;45408;-72
2022/12/01 08:30:21;;;;;;;;;48.00;40.25;;;;;;;;5078264;27;46107;-72
2022/12/01 08:32:46;;;;;;;;;41.75;35.00;;;;;;;;5082897;27;45382;-71
2022/12/01 08:35:11;;;;;;;;;48.00;36.75;;;;;;;;5088681;27;45437;-72
2022/12/01 08:37:36;;;;;;;;;48.00;37.75;;;;;;;;5083169;27;45536;-72
2022/12/01 08:40:01;;;;;;;;;46.25;39.00;;;;;;;;5083767;27;45452;-71
2022/12/01 08:42:26;;;;;;;;;52.00;41.50;;;;;;;;5085710;27;45380;-71
2022/12/01 08:44:52;;;;;;;;;36.50;32.50;;;;;;;;5083142;27;45377;-71
2022/12/01 08:47:17;;;;;;;;;54.50;35.25;;;;;;;;5081705;27;45612;-72
2022/12/01 08:49:43;;;;;;;;;48.50;38.50;;;;;;;;5081199;27;45190;-71
2022/12/01 08:52:08;;;;;;;;;43.00;33.25;;;;;;;;5083402;27;45165;-72
2022/12/01 08:54:33;;;;;;;;;47.25;35.25;;;;;;;;5081189;27;45559;-72
2022/12/01 08:56:58;;;;;;;;;53.00;38.25;;;;;;;;5085427;27;45404;-73
2022/12/01 08:59:23;;;;;;;;;40.50;35.50;;;;;;;;5079410;27;47025;-72
2022/12/01 09:01:51;;;;;;;;;42.75;33.00;;;;;;;;5082471;27;45227;-72
2022/12/01 09:04:20;;;;;;;;;51.75;38.50;;;;;;;;5081621;27;45232;-72
2022/12/01 09:06:46;;;;;;;;;48.50;36.50;;;;;;;;5087403;27;45249;-72
2022/12/01 09:09:13;;;;;;;;;40.75;34.75;;;;;;;;5082139;27;45312;-73
2022/12/01 09:11:38;;;;;;;;;43.00;35.25;;;;;;;;5081000;27;45294;-72
2022/12/01 09:14:04;;;;;;;;;34.25;29.75;;;;;;;;5084413;27;45275;-72
2022/12/01 09:16:29;;;;;;;;;41.75;33.00;;;;;;;;5080359;27;45401;-72
2022/12/01 09:18:55;;;;;;;;;38.75;33.00;;;;;;;;5083197;27;46348;-72
2022/12/01 09:21:22;;;;;;;;;45.00;34.50;;;;;;;;5080539;27;45174;-72
2022/12/01 09:23:47;;;;;;;;;48.50;39.00;;;;;;;;5090892;27;45065;-72
2022/12/01 09:26:17;;;;;;;;;34.25;31.50;;;;;;;;5085274;27;45404;-72
2022/12/01 09:28:42;;;;;;;;;41.75;35.50;;;;;;;;5091073;27;47007;-72
2022/12/01 09:31:08;;;;;;;;;41.25;34.00;;;;;;;;5084232;27;45276;-72
2022/12/01 09:33:33;;;;;;;;;39.00;32.00;;;;;;;;5082384;27;45535;-72
2022/12/01 09:35:59;;;;;;;;;34.75;25.25;;;;;;;;5086845;27;45216;-74
2022/12/01 09:38:24;;;;;;;;;28.00;22.50;;;;;;;;5096473;27;46943;-72
2022/12/01 09:40:51;;;;;;;;;37.50;28.00;;;;;;;;5081204;27;45287;-73
2022/12/01 09:43:21;;;;;;;;;37.50;32.50;;;;;;;;5083113;27;45398;-72
2022/12/01 09:45:57;;;;;;;;;34.00;28.75;;;;;;;;5097533;27;45461;-71
2022/12/01 09:48:32;;;;;;;;;39.25;30.75;;;;;;;;5082625;27;45389;-71
2022/12/01 09:50:57;;;;;;;;;42.00;32.75;;;;;;;;5084000;27;45351;-71
2022/12/01 09:53:24;;;;;;;;;41.50;34.00;;;;;;;;5081926;27;45227;-72
2022/12/01 09:55:50;;;;;;;;;42.50;34.50;;;;;;;;5083490;27;45234;-71
2022/12/01 09:58:21;;;;;;;;;37.00;34.00;;;;;;;;5084788;27;45365;-71
2022/12/01 10:00:48;;;;;;;;;42.00;35.25;;;;;;;;5079393;27;45183;-71
2022/12/01 10:03:16;;;;;;;;;37.00;30.00;;;;;;;;5089594;27;45302;-73
2022/12/01 10:05:44;;;;;;;;;38.50;26.25;;;;;;;;5094345;27;45425;-71
2022/12/01 10:08:14;;;;;;;;;25.50;23.00;;;;;;;;5086392;27;45548;-72
2022/12/01 10:10:43;;;;;;;;;38.50;31.75;;;;;;;;5080205;27;45220;-72
2022/12/01 10:13:15;;;;;;;;;40.50;31.50;;;;;;;;5082523;27;45470;-73
2022/12/01 10:15:53;;;;;;;;;33.25;29.00;;;;;;;;5079848;27;45410;-74
2022/12/01 10:18:18;;;;;;;;;37.25;30.00;;;;;;;;5085244;27;45375;-73
2022/12/01 10:20:47;;;;;;;;;38.40;29.20;;;;;;;;5091336;27;45382;-73
2022/12/01 10:23:19;;;;;;;;;31.75;29.00;;;;;;;;5084398;27;45370;-74
2022/12/01 10:25:58;;;;;;;;;39.00;23.75;;;;;;;;5079680;27;45403;-73
2022/12/01 10:28:42;;;;;;;;;34.00;30.50;;;;;;;;5083601;27;45768;-73
2022/12/01 10:31:14;;;;;;;;;37.50;30.50;;;;;;;;5092494;27;45333;-73
2022/12/01 10:33:47;;;;;;;;;45.00;34.75;;;;;;;;5083073;27;45318;-72
2022/12/01 10:36:12;;;;;;;;;29.50;20.75;;;;;;;;5084919;27;45756;-73
2022/12/01 10:38:38;;;;;;;;;34.00;27.25;;;;;;;;5090925;27;46234;-73
2022/12/01 10:41:05;;;;;;;;;40.25;32.00;;;;;;;;5079390;27;45300;-74
2022/12/01 10:43:38;;;;;;;;;38.50;34.25;;;;;;;;5081721;27;44831;-73
2022/12/01 10:46:20;;;;;;;;;33.25;30.50;;;;;;;;5079255;27;45343;-73
2022/12/01 10:48:51;;;;;;;;;36.50;33.25;;;;;;;;5088305;27;46883;-73
2022/12/01 10:51:18;;;;;;;;;36.00;34.50;;;;;;;;5079414;27;45322;-73
2022/12/01 10:53:44;;;;;;;;;29.50;28.50;;;;;;;;5087611;27;45252;-73
2022/12/01 10:56:17;;;;;;;;;33.25;28.75;;;;;;;;5079583;27;45199;-73
2022/12/01 10:58:45;;;;;;;;;37.25;29.75;;;;;;;;5080108;27;45370;-73
2022/12/01 11:01:15;;;;;;;;;36.50;29.75;;;;;;;;5077735;28;45304;-73
2022/12/01 11:03:40;;;;;;;;;30.25;27.50;;;;;;;;5087461;27;45379;-73
2022/12/01 11:06:06;;;;;;;;;36.50;30.25;;;;;;;;5079426;28;45425;-73
2022/12/01 11:08:39;;;;;;;;;35.50;29.75;;;;;;;;5089061;27;45341;-73
2022/12/01 11:11:05;;;;;;;;;31.00;26.00;;;;;;;;5084393;27;45268;-73
2022/12/01 11:13:32;;;;;;;;;32.50;26.75;;;;;;;;5089559;27;45336;-72
2022/12/01 11:15:59;;;;;;;;;38.50;27.00;;;;;;;;5078870;27;45402;-73
2022/12/01 11:18:35;;;;;;;;;26.75;23.75;;;;;;;;5081260;27;45335;-73
2022/12/01 11:21:14;;;;;;;;;30.75;24.50;;;;;;;;5078888;27;44725;-73
2022/12/01 11:23:49;;;;;;;;;33.50;29.75;;;;;;;;5081141;27;45272;-73
2022/12/01 11:26:16;;;;;;;;;33.75;25.75;;;;;;;;5087371;27;46105;-73
2022/12/01 11:28:53;;;;;;;;;25.75;22.00;;;;;;;;5086746;27;45378;-73
2022/12/01 11:31:19;;;;;;;;;36.00;31.50;;;;;;;;5093087;27;45212;-73
2022/12/01 11:33:50;;;;;;;;;30.25;26.25;;;;;;;;5084807;27;45187;-73
2022/12/01 11:36:24;;;;;;;;;32.50;26.25;;;;;;;;5085087;27;45272;-72
2022/12/01 11:38:53;;;;;;;;;30.75;25.75;;;;;;;;5081223;27;45373;-72
2022/12/01 11:41:38;;;;;;;;;36.75;31.00;;;;;;;;5078482;28;45292;-72
2022/12/01 11:44:05;;;;;;;;;41.75;33.50;;;;;;;;5080644;27;45243;-72
2022/12/01 11:46:34;;;;;;;;;21.50;18.75;;;;;;;;5092431;27;45224;-72
2022/12/01 11:48:59;;;;;;;;;27.75;23.75;;;;;;;;5081818;27;47366;-72
2022/12/01 11:51:36;;;;;;;;;34.25;28.00;;;;;;;;5078567;27;45310;-73
2022/12/01 11:54:06;;;;;;;;;29.25;23.75;;;;;;;;5080780;27;45359;-72
2022/12/01 11:56:31;;;;;;;;;42.00;31.50;;;;;;;;5079257;27;45298;-72
2022/12/01 11:59:10;;;;;;;;;27.75;25.75;;;;;;;;5080705;27;45499;-72
2022/12/01 12:01:35;;;;;;;;;39.00;33.00;;;;;;;;5077455;27;45512;-73
2022/12/01 12:04:39;;;;;;;;;35.50;28.75;;;;;;;;5080696;27;45505;-73
2022/12/01 12:07:19;;;;;;;;;35.75;28.75;;;;;;;;5052472;28;45345;-73
2022/12/01 12:09:55;;;;;;;;;33.75;29.00;;;;;;;;5052357;28;45416;-73
2022/12/01 12:12:31;;;;;;;;;37.25;29.00;;;;;;;;5065245;27;45338;-73
2022/12/01 12:15:01;;;;;;;;;38.00;30.50;;;;;;;;5078675;27;45468;-73
2022/12/01 12:17:48;;;;;;;;;42.25;35.50;;;;;;;;5084258;27;47173;-73
2022/12/01 12:20:13;;;;;;;;;32.00;27.50;;;;;;;;5081195;27;46422;-73
2022/12/01 12:22:50;;;;;;;;;30.75;28.75;;;;;;;;5083512;27;45531;-72
2022/12/01 12:25:34;;;;;;;;;36.50;29.25;;;;;;;;5081755;27;45242;-72
2022/12/01 12:28:08;;;;;;;;;34.25;27.75;;;;;;;;5086657;27;45935;-73
2022/12/01 12:30:41;;;;;;;;;42.25;32.25;;;;;;;;5081423;27;45428;-72
2022/12/01 12:33:22;;;;;;;;;35.00;30.00;;;;;;;;5083757;27;45301;-73
2022/12/01 12:35:57;;;;;;;;;35.25;31.00;;;;;;;;5085978;27;45272;-72
2022/12/01 12:38:45;;;;;;;;;32.50;27.00;;;;;;;;5087969;27;45757;-72
2022/12/01 12:41:30;;;;;;;;;35.75;30.50;;;;;;;;5081123;27;45395;-74
2022/12/01 12:44:01;;;;;;;;;38.50;29.25;;;;;;;;5086450;27;45311;-74
2022/12/01 12:46:45;;;;;;;;;35.75;30.00;;;;;;;;5081466;27;45485;-73
2022/12/01 12:49:10;;;;;;;;;34.75;33.25;;;;;;;;5091434;27;47044;-72
2022/12/01 12:51:40;;;;;;;;;41.50;33.50;;;;;;;;5096363;27;45221;-72
2022/12/01 12:54:16;;;;;;;;;31.00;28.75;;;;;;;;5083186;27;45377;-72
2022/12/01 12:56:45;;;;;;;;;39.00;28.50;;;;;;;;5088345;27;45508;-72
2022/12/01 12:59:12;;;;;;;;;44.75;34.50;;;;;;;;5080564;27;45231;-72
2022/12/01 13:01:40;;;;;;;;;36.00;27.25;;;;;;;;5081293;27;45469;-72
2022/12/01 13:04:09;;;;;;;;;47.25;35.00;;;;;;;;5093384;27;45390;-72
2022/12/01 13:06:50;;;;;;;;;27.25;27.00;;;;;;;;5095025;27;45217;-72
2022/12/01 13:09:18;;;;;;;;;30.75;27.75;;;;;;;;5081063;27;45359;-72
2022/12/01 13:11:46;;;;;;;;;22.75;18.25;;;;;;;;5080835;27;46381;-71
2022/12/01 13:14:29;;;;;;;;;31.50;30.50;;;;;;;;5079776;27;45097;-72
2022/12/01 13:16:56;;;;;;;;;34.50;28.75;;;;;;;;5082762;27;45230;-72
2022/12/01 13:19:27;;;;;;;;;34.25;27.75;;;;;;;;5080510;27;45442;-72
2022/12/01 13:21:53;;;;;;;;;33.00;28.25;;;;;;;;5082483;27;45258;-72
2022/12/01 13:24:20;;;;;;;;;30.00;26.25;;;;;;;;5092738;27;46382;-74
2022/12/01 13:26:47;;;;;;;;;36.00;25.25;;;;;;;;5082701;27;45362;-74
2022/12/01 13:29:15;;;;;;;;;42.75;28.00;;;;;;;;5084240;27;45437;-75
2022/12/01 13:31:42;;;;;;;;;22.50;18.75;;;;;;;;5083554;27;46137;-75
2022/12/01 13:34:16;;;;;;;;;30.00;27.25;;;;;;;;5087114;27;45426;-75
2022/12/01 13:36:46;;;;;;;;;29.75;21.25;;;;;;;;5080705;27;45293;-72
2022/12/01 13:39:34;;;;;;;;;32.50;27.25;;;;;;;;5088759;27;47125;-72
2022/12/01 13:41:59;;;;;;;;;36.50;27.00;;;;;;;;5081740;27;46164;-72
2022/12/01 13:44:27;;;;;;;;;43.00;32.75;;;;;;;;5079793;27;45327;-72
2022/12/01 13:46:56;;;;;;;;;40.50;27.00;;;;;;;;5081233;27;45379;-71
2022/12/01 13:49:38;;;;;;;;;34.50;29.75;;;;;;;;5080139;27;45674;-73
2022/12/01 13:52:22;;;;;;;;;36.75;30.75;;;;;;;;5087766;27;45257;-74
2022/12/01 13:55:05;;;;;;;;;29.75;20.50;;;;;;;;5079870;27;45296;-74
2022/12/01 13:57:32;;;;;;;;;28.75;25.25;;;;;;;;5088759;27;45366;-73
2022/12/01 13:59:57;;;;;;;;;31.75;26.50;;;;;;;;5079506;27;45424;-74
2022/12/01 14:02:23;;;;;;;;;34.75;25.25;;;;;;;;5080154;27;45539;-74
2022/12/01 14:04:48;;;;;;;;;31.75;24.75;;;;;;;;5086276;27;45379;-74
2022/12/01 14:07:21;;;;;;;;;27.50;24.50;;;;;;;;5088110;27;45275;-71
2022/12/01 14:09:48;;;;;;;;;26.25;23.25;;;;;;;;5083709;27;45248;-73
2022/12/01 14:12:18;;;;;;;;;23.50;21.00;;;;;;;;5083501;27;46387;-73
2022/12/01 14:14:52;;;;;;;;;33.25;26.00;;;;;;;;5080148;27;45340;-72
2022/12/01 14:17:31;;;;;;;;;33.75;26.00;;;;;;;;5082602;27;45242;-71
2022/12/01 14:20:07;;;;;;;;;25.00;19.00;;;;;;;;5082650;27;45441;-73
2022/12/01 14:22:40;;;;;;;;;33.50;23.25;;;;;;;;5092849;27;47427;-73
2022/12/01 14:25:27;;;;;;;;;28.50;26.00;;;;;;;;5079868;27;45461;-74
2022/12/01 14:28:02;;;;;;;;;36.25;28.00;;;;;;;;5081834;27;45430;-74